x

Sheboygan, Wi (sgnw3) Weather Station

10:00pm - Sat 20th Dec 2014 All times are CST. -6 hours from GMT.

  • Wind
    6mph
  • Sea Temp 34°f
  • Air Temp 31°f
  • Sea Pressure 1024.5mb
  • Sheboygan, Wi
  • Sheboygan, Wi

More Historic Weather Station data

Upgrade to MSW Pro to gain access to the past 30 days of data for over 8000 Wavebouys and Weather Stations around the globe.

Join Pro

Comparision Forecast

View Surf forecast
   
Sat 12/20 10:00pm 6
mph
1024.5mb 34f 31f
9:00pm 5
mph
1024.8mb 34f 31f
8:00pm 6 7 mph 1025mb 34f 31f
7:00pm 5 6 mph 1025.2mb 34f 31f
6:00pm 5 6 mph 1024.9mb 34f 31f
5:00pm 6
mph
1024.9mb 34f 31f
4:00pm 5
mph
1024.8mb 34f 32f
3:00pm 5 6 mph 1024.7mb 34f 32f
2:00pm 6 7 mph 1024.5mb 33f 31f
1:00pm 7 8 mph 1024.7mb 33f 31f
12:00pm 6 7 mph 1025.3mb 34f 31f
11:00am 5
mph
1025.6mb 34f 30f
10:00am 5
mph
1026.1mb 34f 29f
9:00am 5 6 mph 1026.1mb 33f 29f
8:00am 5 6 mph 1026.1mb 34f 28f
7:00am 7 8 mph 1026mb 34f 28f
6:00am 8
mph
1026mb 34f 28f
5:00am 6 7 mph 1026mb 34f 28f
4:00am 3 5 mph 1026.1mb 33f 28f
3:00am 7 8 mph 1026.1mb 33f 29f
2:00am 7 8 mph 1025.8mb 34f 29f
1:00am 9 10 mph 1025.6mb 34f 29f
12:00am 6 7 mph 1025.8mb 34f 29f
Fri 12/19 11:00pm 7
mph
1025.7mb 34f 29f
10:00pm 5
mph
1025.6mb 34f 29f
9:00pm 6 8 mph 1025.7mb 34f 29f
8:00pm 6 7 mph 1026.2mb 34f 29f
7:00pm 3 5 mph 1027.1mb 34f 30f
6:00pm 6 7 mph 1027.4mb 34f 30f
5:00pm 3 5 mph 1027.1mb 33f 31f
4:00pm 6
mph
1026.1mb 33f 31f
3:00pm 3 5 mph 1026mb 33f 31f
2:00pm 5 6 mph 1025.9mb 33f 31f
1:00pm 7
mph
1026.3mb 33f 30f
12:00pm 5 6 mph 1026.4mb 34f 30f
11:00am 10 11 mph 1026.7mb 34f 29f
10:00am 9 10 mph 1027.2mb 33f 28f
9:00am 8 10 mph 1027.3mb 33f 26f
8:00am 9 11 mph 1027mb 33f 26f
7:00am 9 11 mph 1026.7mb 34f 26f
6:00am 10 11 mph 1026.6mb 34f 25f
5:00am 7 9 mph 1026.2mb 33f 24f
4:00am 10 11 mph 1026mb 34f 24f
3:00am 11 14 mph 1026mb 34f 25f
2:00am 10 11 mph 1026.1mb 34f 25f
1:00am 11 13 mph 1025.5mb 34f 25f
12:00am 10 11 mph 1025.7mb 34f 25f
Thu 12/18 11:00pm 9 10 mph 1025.9mb 34f 24f
10:00pm 7 9 mph 1025.6mb 34f 25f
9:00pm 8 9 mph 1025.7mb 34f 26f
8:00pm 8 9 mph 1025.8mb 34f 27f
7:00pm 8 9 mph 1025.5mb 34f 28f
6:00pm 9 11 mph 1025.3mb 34f 28f
5:00pm 8 9 mph 1025.1mb 34f 28f
4:00pm 8 9 mph 1024.9mb 34f 28f
3:00pm 11 13 mph 1024.6mb 34f 28f
2:00pm 11 14 mph 1024.4mb 34f 29f
1:00pm 10 14 mph 1024.7mb 34f 28f
12:00pm 13 14 mph 1025.2mb 34f 28f
11:00am 13 14 mph 1025.8mb 34f 28f
10:00am 11 15 mph 1026.5mb 34f 28f
9:00am 10 13 mph 1026.4mb 34f 28f
8:00am 11 15 mph 1025.7mb 34f 28f
7:00am 9 11 mph 1025.2mb 34f 27f
6:00am 10 13 mph 1025.2mb 34f 26f
5:00am 7 8 mph 1025.5mb 34f 26f
4:00am 9 11 mph 1025.4mb 34f 25f
3:00am 9 10 mph 1025.6mb 34f 25f
2:00am 11 15 mph 1025.8mb 34f 24f
1:00am 13 16 mph 1026.1mb 34f 24f
12:00am 14 18 mph 1025.7mb 34f 24f
Wed 12/17 11:00pm 14 15 mph 1025.5mb 35f 24f
10:00pm 11 13 mph 1024.8mb 34f 23f
9:00pm 13 14 mph 1024.7mb 34f 23f
8:00pm 14 17 mph 1024.3mb 34f 23f
7:00pm 15 18 mph 1024.2mb 35f 24f
6:00pm 15 17 mph 1024.4mb 35f 24f
5:00pm 16 20 mph 1023.8mb 35f 24f
4:00pm 20 23 mph 1023.5mb 35f 25f
3:00pm 18 21 mph 1022.9mb 35f 26f
2:00pm 14 18 mph 1022.4mb 35f 25f
1:00pm 15 18 mph 1022.4mb 35f 25f
12:00pm 18 23 mph 1022.4mb 35f 25f
11:00am 21 25 mph 1022.9mb 35f 24f
10:00am 14 18 mph 1023.2mb 35f 25f
9:00am 13 17 mph 1022.8mb 35f 25f
8:00am 16 20 mph 1022.4mb 35f 25f
7:00am 14 16 mph 1022.1mb 36f 26f
6:00am 13 15 mph 1021.7mb 36f 26f